Time;durP1;ratioP1;P1;durP2;ratioP2;P2;SDS_P1;SDS_P2;PMS_P1;PMS_P2;Temp;Humidity;BMP_temperature;BMP_pressure;BME280_temperature;BME280_humidity;BME280_pressure;Samples;Min_cycle;Max_cycle;Signal;HPM_P1;HPM_P2
2023/06/19 00:01:45;;;;;;;5.67;5.27;;;25.10;18.60;;;;;;10433101;28;20245;-68
2023/06/19 00:06:49;;;;;;;6.00;5.50;;;25.00;18.50;;;;;;10427308;28;20243;-69
2023/06/19 00:11:53;;;;;;;5.90;5.50;;;25.00;19.00;;;;;;10429485;28;20287;-69
2023/06/19 00:16:56;;;;;;;5.83;5.23;;;25.00;18.90;;;;;;10435092;28;20606;-68
2023/06/19 00:22:00;;;;;;;5.60;5.20;;;24.90;18.80;;;;;;10435009;28;20575;-68
2023/06/19 00:27:04;;;;;;;5.43;5.03;;;24.80;19.10;;;;;;10435914;28;20221;-69
2023/06/19 00:32:08;;;;;;;5.63;5.10;;;24.70;19.00;;;;;;10430329;28;20230;-69
2023/06/19 00:37:13;;;;;;;5.60;5.10;;;24.70;19.10;;;;;;10442579;28;20225;-68
2023/06/19 00:42:16;;;;;;;5.87;5.47;;;24.60;19.40;;;;;;10432460;28;20315;-68
2023/06/19 00:47:20;;;;;;;5.70;5.30;;;24.50;20.10;;;;;;10430875;28;20263;-68
2023/06/19 00:52:24;;;;;;;6.17;5.57;;;24.50;19.50;;;;;;10434559;28;20228;-68
2023/06/19 00:57:28;;;;;;;6.30;5.80;;;24.40;19.80;;;;;;10425066;28;20229;-68
2023/06/19 01:02:31;;;;;;;6.07;5.57;;;24.40;19.60;;;;;;10431610;28;20225;-68
2023/06/19 01:07:45;;;;;;;6.73;6.03;;;24.40;19.90;;;;;;10431148;28;20312;-68
2023/06/19 01:12:53;;;;;;;6.23;5.73;;;24.40;20.30;;;;;;10432375;28;20278;-68
2023/06/19 01:18:00;;;;;;;5.53;5.10;;;24.40;20.30;;;;;;10435090;28;20324;-68
2023/06/19 01:23:09;;;;;;;6.43;5.93;;;24.50;20.30;;;;;;10429858;28;20235;-69
2023/06/19 01:28:13;;;;;;;6.90;5.90;;;24.40;20.80;;;;;;10444193;28;20221;-69
2023/06/19 01:33:21;;;;;;;6.23;5.73;;;24.40;20.50;;;;;;10429478;28;20225;-68
2023/06/19 01:38:28;;;;;;;6.37;5.83;;;24.30;20.60;;;;;;10425016;28;20886;-68
2023/06/19 01:43:32;;;;;;;6.27;5.77;;;24.30;20.70;;;;;;10427244;28;20229;-68
2023/06/19 01:48:36;;;;;;;6.60;5.90;;;24.30;20.70;;;;;;10423788;28;20243;-68
2023/06/19 01:53:41;;;;;;;6.30;5.80;;;24.30;20.70;;;;;;10425279;28;20239;-68
2023/06/19 01:58:44;;;;;;;6.53;6.03;;;24.30;20.60;;;;;;10420113;28;20236;-68
2023/06/19 02:03:47;;;;;;;7.20;6.50;;;24.30;20.50;;;;;;10423155;28;20239;-68
2023/06/19 02:08:52;;;;;;;6.10;5.70;;;24.30;20.50;;;;;;10429601;28;20237;-68
2023/06/19 02:13:55;;;;;;;6.50;6.00;;;24.30;20.60;;;;;;10429232;28;20231;-68
2023/06/19 02:18:58;;;;;;;6.00;5.57;;;24.40;20.70;;;;;;10427255;28;20237;-68
2023/06/19 02:24:04;;;;;;;6.90;6.33;;;24.40;21.00;;;;;;10432561;28;20224;-68
2023/06/19 02:29:07;;;;;;;6.17;5.73;;;24.50;21.50;;;;;;10439814;28;20323;-69
2023/06/19 02:34:10;;;;;;;5.90;5.50;;;24.50;21.30;;;;;;10434405;28;20226;-69
2023/06/19 02:39:15;;;;;;;6.70;6.20;;;24.50;21.10;;;;;;10432152;28;20354;-68
2023/06/19 02:44:18;;;;;;;5.70;5.20;;;24.50;21.70;;;;;;10436580;28;20320;-68
2023/06/19 02:49:21;;;;;;;7.70;6.13;;;24.50;21.40;;;;;;10434132;28;20237;-68
2023/06/19 02:54:26;;;;;;;6.43;5.93;;;24.50;21.60;;;;;;10437445;28;20278;-68
2023/06/19 02:59:29;;;;;;;6.23;5.83;;;24.50;22.00;;;;;;10426651;28;20231;-68
2023/06/19 03:04:32;;;;;;;6.70;6.20;;;24.50;21.60;;;;;;10430902;28;20271;-68
2023/06/19 03:09:37;;;;;;;6.60;6.00;;;24.40;21.70;;;;;;10433232;28;20251;-68
2023/06/19 03:14:40;;;;;;;6.50;6.00;;;24.40;22.10;;;;;;10432905;28;20232;-68
2023/06/19 03:19:43;;;;;;;6.73;6.13;;;24.40;22.20;;;;;;10437594;28;20239;-68
2023/06/19 03:24:48;;;;;;;6.80;6.20;;;24.40;21.70;;;;;;10436152;28;20341;-68
2023/06/19 03:29:51;;;;;;;5.70;5.30;;;24.30;21.80;;;;;;10432964;28;20229;-68
2023/06/19 03:34:55;;;;;;;6.63;6.13;;;24.30;21.60;;;;;;10437033;28;20236;-68
2023/06/19 03:39:59;;;;;;;6.03;5.63;;;24.30;21.70;;;;;;10435225;28;20229;-68
2023/06/19 03:45:03;;;;;;;6.93;6.40;;;24.30;22.10;;;;;;10431334;28;20237;-68
2023/06/19 03:50:09;;;;;;;6.03;5.63;;;24.30;21.90;;;;;;10435507;28;20313;-68
2023/06/19 03:55:24;;;;;;;6.17;5.67;;;24.30;22.10;;;;;;10434708;28;20302;-68
2023/06/19 04:00:27;;;;;;;6.83;6.23;;;24.20;22.40;;;;;;10435855;28;20379;-68
2023/06/19 04:05:30;;;;;;;7.27;6.63;;;24.20;22.50;;;;;;10429443;28;21226;-69
2023/06/19 04:10:35;;;;;;;6.10;5.60;;;24.20;22.30;;;;;;10436918;28;20224;-68
2023/06/19 04:15:38;;;;;;;6.57;6.07;;;24.10;22.70;;;;;;10428005;28;20305;-68
2023/06/19 04:20:41;;;;;;;7.00;6.40;;;24.00;23.10;;;;;;10432490;28;20232;-69
2023/06/19 04:25:46;;;;;;;6.53;6.03;;;24.10;23.10;;;;;;10431481;28;20747;-68
2023/06/19 04:30:49;;;;;;;7.10;6.50;;;24.00;23.40;;;;;;10428663;28;20229;-69
2023/06/19 04:35:52;;;;;;;7.00;6.20;;;24.00;23.30;;;;;;10432411;28;20749;-68
2023/06/19 04:40:58;;;;;;;7.57;6.97;;;24.00;23.10;;;;;;10431066;28;20232;-68
2023/06/19 04:46:03;;;;;;;7.47;6.87;;;24.00;23.80;;;;;;10417348;28;20260;-69
2023/06/19 04:51:06;;;;;;;7.60;7.00;;;23.90;23.30;;;;;;10420166;28;20300;-68
2023/06/19 04:56:11;;;;;;;7.50;6.90;;;23.80;23.60;;;;;;10428773;28;20245;-69
2023/06/19 05:01:14;;;;;;;7.57;6.97;;;23.80;23.80;;;;;;10429599;28;20233;-68
2023/06/19 05:06:18;;;;;;;7.00;6.40;;;23.80;23.70;;;;;;10427905;28;20787;-68
2023/06/19 05:11:22;;;;;;;7.83;7.03;;;23.70;24.10;;;;;;10430041;28;20666;-72
2023/06/19 05:16:25;;;;;;;7.40;6.80;;;23.80;24.50;;;;;;10424499;28;20308;-72
2023/06/19 05:21:29;;;;;;;7.10;6.60;;;23.80;24.60;;;;;;10435376;28;20236;-72
2023/06/19 05:26:33;;;;;;;7.87;7.17;;;23.80;24.50;;;;;;10431551;28;20235;-72
2023/06/19 05:31:36;;;;;;;8.43;7.73;;;23.90;25.20;;;;;;10433780;28;20876;-71
2023/06/19 05:36:40;;;;;;;7.70;7.10;;;23.90;24.70;;;;;;10429919;28;20241;-72
2023/06/19 05:41:45;;;;;;;8.07;7.27;;;23.90;24.80;;;;;;10427080;28;20806;-72
2023/06/19 05:46:48;;;;;;;7.70;7.10;;;23.90;25.00;;;;;;10445245;28;20264;-72
2023/06/19 05:51:52;;;;;;;8.23;7.53;;;24.00;25.00;;;;;;10438715;28;20585;-72
2023/06/19 05:56:56;;;;;;;8.13;7.50;;;24.00;25.30;;;;;;10433108;28;20656;-71
2023/06/19 06:01:59;;;;;;;7.93;7.20;;;23.90;25.40;;;;;;10443788;28;20221;-71
2023/06/19 06:07:03;;;;;;;8.40;7.70;;;23.90;25.10;;;;;;10437478;28;20257;-71
2023/06/19 06:12:09;;;;;;;8.87;8.07;;;23.90;25.40;;;;;;10443772;28;20228;-71
2023/06/19 06:17:12;;;;;;;8.93;8.23;;;23.90;26.30;;;;;;10434619;28;20247;-71
2023/06/19 06:22:15;;;;;;;8.80;8.00;;;23.90;25.80;;;;;;10436271;28;20221;-71
2023/06/19 06:27:19;;;;;;;9.20;8.40;;;24.00;26.10;;;;;;10430598;28;20232;-71
2023/06/19 06:32:23;;;;;;;8.90;8.20;;;24.10;26.40;;;;;;10434287;28;20252;-71
2023/06/19 06:37:26;;;;;;;8.77;7.90;;;24.30;26.00;;;;;;10431776;28;20233;-71
2023/06/19 06:42:31;;;;;;;9.00;8.07;;;24.50;26.00;;;;;;10431967;28;20237;-71
2023/06/19 06:47:34;;;;;;;9.33;8.63;;;24.60;26.60;;;;;;10433689;28;20225;-71
2023/06/19 06:52:37;;;;;;;9.03;8.30;;;24.80;26.10;;;;;;10434507;28;20221;-73
2023/06/19 06:57:42;;;;;;;8.60;7.77;;;24.90;25.70;;;;;;10424230;28;20328;-73
2023/06/19 07:02:47;;;;;;;9.50;8.37;;;25.10;25.90;;;;;;10423092;28;20237;-73
2023/06/19 07:07:51;;;;;;;9.83;8.97;;;25.20;25.30;;;;;;10428040;28;20228;-72
2023/06/19 07:12:55;;;;;;;9.30;8.50;;;25.40;24.90;;;;;;10425302;28;20221;-71
2023/06/19 07:17:59;;;;;;;9.93;9.03;;;25.50;25.10;;;;;;10427103;28;20957;-71
2023/06/19 07:23:02;;;;;;;8.83;7.97;;;25.70;25.10;;;;;;10430907;28;20279;-71
2023/06/19 07:28:07;;;;;;;8.77;7.97;;;25.80;24.40;;;;;;10427765;28;20227;-71
2023/06/19 07:33:10;;;;;;;9.43;8.53;;;26.10;24.40;;;;;;10435806;28;20672;-67
2023/06/19 07:38:13;;;;;;;9.37;8.67;;;26.30;24.10;;;;;;10432900;28;20780;-68
2023/06/19 07:43:18;;;;;;;9.47;8.77;;;26.40;24.30;;;;;;10429603;28;20231;-68
2023/06/19 07:48:21;;;;;;;9.20;8.40;;;26.50;24.00;;;;;;10429714;28;20587;-68
2023/06/19 07:53:27;;;;;;;9.40;8.70;;;26.70;24.10;;;;;;10434981;28;20236;-67
2023/06/19 07:58:31;;;;;;;8.50;7.90;;;26.90;24.00;;;;;;10426921;28;20236;-67
2023/06/19 08:03:35;;;;;;;10.07;9.13;;;27.10;24.30;;;;;;10422791;28;20237;-68
2023/06/19 08:08:38;;;;;;;9.00;8.20;;;27.20;23.90;;;;;;10423879;28;20240;-68
2023/06/19 08:13:43;;;;;;;9.30;8.53;;;27.40;23.80;;;;;;10419479;28;20244;-68
2023/06/19 08:18:46;;;;;;;9.47;8.53;;;27.50;23.60;;;;;;10419922;28;20229;-67
2023/06/19 08:23:49;;;;;;;10.00;9.10;;;27.60;23.80;;;;;;10424597;28;20259;-67
2023/06/19 08:28:54;;;;;;;9.40;8.57;;;27.60;23.70;;;;;;10422872;28;20226;-67
2023/06/19 08:33:58;;;;;;;9.90;8.77;;;27.70;23.80;;;;;;10422277;28;20231;-71
2023/06/19 08:39:01;;;;;;;10.07;9.27;;;27.60;23.60;;;;;;10418443;28;20572;-71
2023/06/19 08:44:06;;;;;;;9.93;9.13;;;27.60;23.50;;;;;;10428455;28;20217;-71
2023/06/19 08:49:10;;;;;;;9.73;8.93;;;27.60;23.80;;;;;;10424745;28;20237;-71
2023/06/19 08:54:14;;;;;;;10.20;9.33;;;27.50;23.40;;;;;;10433639;28;20231;-71
2023/06/19 08:59:20;;;;;;;10.37;9.40;;;27.50;23.50;;;;;;10437493;28;20224;-71
2023/06/19 09:04:26;;;;;;;9.90;9.10;;;27.50;23.50;;;;;;10432066;28;20315;-71
2023/06/19 09:09:29;;;;;;;9.77;8.87;;;27.50;23.40;;;;;;10431042;28;20250;-72
2023/06/19 09:14:34;;;;;;;9.70;9.00;;;27.50;23.80;;;;;;10434917;28;20312;-72
2023/06/19 09:19:39;;;;;;;9.70;9.00;;;27.60;23.80;;;;;;10434720;28;20234;-71
2023/06/19 09:24:43;;;;;;;10.00;8.63;;;27.70;23.80;;;;;;10432903;28;20223;-71
2023/06/19 09:29:49;;;;;;;10.03;9.13;;;27.80;23.60;;;;;;10421489;28;20228;-71
2023/06/19 09:34:54;;;;;;;9.50;8.70;;;27.90;23.50;;;;;;10427907;28;20780;-72
2023/06/19 09:39:59;;;;;;;8.00;7.40;;;28.00;23.20;;;;;;10434516;28;20611;-71
2023/06/19 09:45:06;;;;;;;7.50;7.00;;;28.10;23.30;;;;;;10424257;28;20229;-71
2023/06/19 09:50:13;;;;;;;6.97;6.53;;;28.10;23.10;;;;;;10431256;28;20237;-71
2023/06/19 09:55:17;;;;;;;7.50;6.87;;;28.20;23.00;;;;;;10438140;28;20231;-71
2023/06/19 10:00:26;;;;;;;7.53;6.97;;;28.30;23.20;;;;;;10425479;28;20721;-72
2023/06/19 10:05:30;;;;;;;6.80;6.30;;;28.40;23.10;;;;;;10421098;28;21031;-72
2023/06/19 10:10:34;;;;;;;7.37;6.87;;;28.60;23.40;;;;;;10426967;28;20221;-71
2023/06/19 10:15:42;;;;;;;7.33;6.80;;;28.80;23.30;;;;;;10412159;28;20324;-71
2023/06/19 10:20:46;;;;;;;6.93;6.43;;;29.00;22.80;;;;;;10413479;28;20572;-73
2023/06/19 10:25:57;;;;;;;7.43;6.67;;;29.20;22.90;;;;;;10416430;28;21069;-67
2023/06/19 10:31:07;;;;;;;7.10;6.50;;;29.30;22.60;;;;;;10424783;28;20303;-68
2023/06/19 10:36:17;;;;;;;6.87;6.37;;;29.50;23.30;;;;;;10422830;28;20225;-67
2023/06/19 10:41:22;;;;;;;5.80;5.40;;;29.60;22.60;;;;;;10408762;28;20221;-67
2023/06/19 10:46:30;;;;;;;6.40;5.90;;;29.80;22.40;;;;;;10415056;28;20713;-72
2023/06/19 10:51:36;;;;;;;5.90;5.50;;;30.00;21.80;;;;;;10411691;28;20278;-72
2023/06/19 10:56:39;;;;;;;6.60;5.73;;;30.20;21.90;;;;;;10414271;28;20659;-72
2023/06/19 11:01:46;;;;;;;6.10;5.60;;;30.30;21.70;;;;;;10413937;28;20251;-67
2023/06/19 11:06:50;;;;;;;5.93;5.43;;;30.40;21.30;;;;;;10422701;28;20244;-67
2023/06/19 11:11:53;;;;;;;5.70;5.30;;;30.50;21.40;;;;;;10418289;28;20221;-67
2023/06/19 11:16:58;;;;;;;6.33;5.83;;;30.50;21.40;;;;;;10436523;28;20887;-72
2023/06/19 11:22:02;;;;;;;8.93;5.33;;;30.60;21.50;;;;;;10431075;28;21005;-73
2023/06/19 11:27:10;;;;;;;5.83;5.43;;;30.70;21.50;;;;;;10426264;28;20712;-72
2023/06/19 11:32:24;;;;;;;5.43;5.10;;;30.80;21.50;;;;;;10433306;28;20234;-73
2023/06/19 11:37:30;;;;;;;5.30;4.90;;;30.80;21.40;;;;;;10431527;28;20320;-71
2023/06/19 11:42:34;;;;;;;5.47;4.97;;;30.80;21.10;;;;;;10434711;28;20387;-71
2023/06/19 11:47:38;;;;;;;6.10;5.50;;;30.90;21.20;;;;;;10426314;28;20585;-72
2023/06/19 11:52:45;;;;;;;5.63;5.23;;;30.90;20.70;;;;;;10432940;28;20233;-71
2023/06/19 11:57:48;;;;;;;5.60;5.10;;;31.00;20.90;;;;;;10429516;28;20304;-72
2023/06/19 12:02:53;;;;;;;5.87;5.47;;;31.10;21.10;;;;;;10429954;28;20233;-71
2023/06/19 12:07:57;;;;;;;5.80;5.40;;;31.10;20.50;;;;;;10429710;28;20699;-71
2023/06/19 12:13:01;;;;;;;6.37;5.00;;;31.20;20.60;;;;;;10430575;28;20236;-71
2023/06/19 12:18:07;;;;;;;5.33;4.83;;;31.30;20.70;;;;;;10428105;28;21216;-71
2023/06/19 12:23:10;;;;;;;9.33;5.60;;;31.40;20.50;;;;;;10426865;28;20268;-67
2023/06/19 12:28:18;;;;;;;4.33;4.03;;;31.50;20.10;;;;;;10428497;28;20310;-72
2023/06/19 12:33:22;;;;;;;5.47;4.10;;;31.60;20.20;;;;;;10426155;28;20340;-72
2023/06/19 12:38:26;;;;;;;4.77;4.47;;;31.70;19.80;;;;;;10432534;28;20237;-73
2023/06/19 12:43:31;;;;;;;5.10;4.70;;;31.80;20.00;;;;;;10432672;28;20221;-72
2023/06/19 12:48:36;;;;;;;4.90;4.50;;;31.90;19.80;;;;;;10423180;28;20225;-72
2023/06/19 12:53:39;;;;;;;5.13;4.73;;;32.00;19.50;;;;;;10430902;28;20267;-72
2023/06/19 12:58:42;;;;;;;4.90;4.50;;;32.10;19.40;;;;;;10428754;28;20717;-72
2023/06/19 13:03:47;;;;;;;4.73;4.43;;;32.20;19.40;;;;;;10425315;28;20234;-72
2023/06/19 13:08:50;;;;;;;5.00;4.60;;;32.30;19.10;;;;;;10421847;28;20319;-67
2023/06/19 13:13:53;;;;;;;4.60;4.30;;;32.30;18.90;;;;;;10419520;28;20226;-67
2023/06/19 13:18:58;;;;;;;4.47;4.17;;;32.40;18.90;;;;;;10428358;28;20741;-67
2023/06/19 13:24:01;;;;;;;4.10;3.87;;;32.50;18.70;;;;;;10431999;28;20221;-67
2023/06/19 13:29:04;;;;;;;4.63;4.20;;;32.40;18.60;;;;;;10433048;28;20237;-70
2023/06/19 13:34:09;;;;;;;4.10;3.80;;;32.40;18.90;;;;;;10432500;28;20311;-71
2023/06/19 13:39:12;;;;;;;4.03;3.83;;;32.50;18.40;;;;;;10431045;28;20664;-71
2023/06/19 13:44:15;;;;;;;4.13;3.93;;;32.50;18.40;;;;;;10433917;28;21078;-67
2023/06/19 13:49:20;;;;;;;4.07;3.87;;;32.50;18.50;;;;;;10430586;28;20240;-67
2023/06/19 13:54:23;;;;;;;4.30;4.00;;;32.60;18.30;;;;;;10430236;28;20232;-67
2023/06/19 13:59:27;;;;;;;4.13;3.83;;;32.70;18.20;;;;;;10430615;28;20303;-71
2023/06/19 14:04:32;;;;;;;4.07;3.87;;;32.70;17.80;;;;;;10431369;28;20543;-69
2023/06/19 14:09:35;;;;;;;4.47;4.17;;;32.60;17.70;;;;;;10433241;28;20228;-71
2023/06/19 14:14:38;;;;;;;4.33;3.93;;;32.50;17.90;;;;;;10442664;28;20235;-71
2023/06/19 14:19:43;;;;;;;4.17;3.87;;;32.30;17.60;;;;;;10440665;28;20236;-70
2023/06/19 14:24:46;;;;;;;3.83;3.63;;;32.30;17.70;;;;;;10434604;28;20239;-71
2023/06/19 14:29:50;;;;;;;4.07;3.70;;;32.20;17.80;;;;;;10445992;28;20241;-71
2023/06/19 14:34:55;;;;;;;4.10;3.90;;;32.30;17.80;;;;;;10441438;28;20291;-71
2023/06/19 14:39:58;;;;;;;3.40;3.20;;;32.30;17.50;;;;;;10432212;28;20255;-71
2023/06/19 14:45:02;;;;;;;3.77;3.57;;;32.30;17.90;;;;;;10435960;28;20225;-70
2023/06/19 14:50:08;;;;;;;4.03;3.80;;;32.40;17.70;;;;;;10441760;28;20255;-70
2023/06/19 14:55:11;;;;;;;3.97;3.67;;;32.50;17.30;;;;;;10443800;28;20319;-71
2023/06/19 15:00:15;;;;;;;3.83;3.53;;;32.60;17.40;;;;;;10438133;28;20317;-71
2023/06/19 15:05:20;;;;;;;4.20;3.90;;;32.70;17.30;;;;;;10442864;28;20333;-71
2023/06/19 15:10:23;;;;;;;5.93;4.30;;;32.80;17.30;;;;;;10423264;28;21048;-71
2023/06/19 15:15:27;;;;;;;3.40;3.20;;;32.90;17.20;;;;;;10428370;28;20601;-72
2023/06/19 15:20:31;;;;;;;3.80;3.60;;;32.90;17.30;;;;;;10431930;28;20709;-70
2023/06/19 15:25:34;;;;;;;3.90;3.60;;;33.00;16.90;;;;;;10428685;28;20229;-71
2023/06/19 15:30:38;;;;;;;3.50;3.30;;;33.00;16.90;;;;;;10426704;28;20746;-67
2023/06/19 15:35:43;;;;;;;3.47;3.27;;;33.00;16.60;;;;;;10434503;28;20233;-68
2023/06/19 15:40:46;;;;;;;3.50;3.30;;;33.10;16.50;;;;;;10433373;28;20238;-71
2023/06/19 15:45:49;;;;;;;3.47;3.17;;;33.20;16.50;;;;;;10431048;28;20235;-71
2023/06/19 15:50:54;;;;;;;3.50;3.30;;;33.30;16.60;;;;;;10431719;28;20633;-71
2023/06/19 15:55:57;;;;;;;3.60;3.40;;;33.40;16.20;;;;;;10428352;28;20231;-73
2023/06/19 16:01:01;;;;;;;4.10;3.40;;;33.50;16.60;;;;;;10432090;28;20254;-73
2023/06/19 16:06:06;;;;;;;3.33;3.13;;;33.50;17.10;;;;;;10426005;28;20837;-73
2023/06/19 16:11:12;;;;;;;3.53;3.33;;;33.50;16.40;;;;;;10422827;28;20233;-73
2023/06/19 16:16:15;;;;;;;4.93;3.07;;;33.60;16.20;;;;;;10431403;28;20764;-73
2023/06/19 16:21:20;;;;;;;3.70;3.50;;;33.60;16.10;;;;;;10434996;28;20225;-74
2023/06/19 16:26:23;;;;;;;3.30;3.10;;;33.50;15.70;;;;;;10428031;28;20232;-68
2023/06/19 16:31:26;;;;;;;3.57;3.37;;;33.50;16.10;;;;;;10427571;28;20236;-68
2023/06/19 16:36:31;;;;;;;3.47;3.27;;;33.40;16.00;;;;;;10433519;28;21183;-68
2023/06/19 16:41:34;;;;;;;3.70;3.50;;;33.40;15.90;;;;;;10427121;28;20819;-72
2023/06/19 16:46:38;;;;;;;3.33;3.13;;;33.40;16.20;;;;;;10431365;28;20233;-72
2023/06/19 16:51:42;;;;;;;3.70;3.40;;;33.30;16.20;;;;;;10425424;28;20283;-72
2023/06/19 16:56:46;;;;;;;3.60;3.40;;;33.30;16.20;;;;;;10427695;28;20249;-72
2023/06/19 17:01:49;;;;;;;3.33;3.13;;;33.30;16.50;;;;;;10429771;28;20230;-71
2023/06/19 17:06:54;;;;;;;3.30;3.10;;;33.30;16.60;;;;;;10431120;28;20229;-71
2023/06/19 17:11:57;;;;;;;3.50;3.30;;;33.30;16.50;;;;;;10429352;28;20609;-72
2023/06/19 17:17:00;;;;;;;3.57;3.37;;;33.30;16.60;;;;;;10428480;28;20235;-72
2023/06/19 17:22:05;;;;;;;3.57;3.37;;;33.20;16.60;;;;;;10429790;28;20231;-71
2023/06/19 17:27:08;;;;;;;3.40;3.20;;;33.30;16.60;;;;;;10437241;28;20634;-72
2023/06/19 17:32:11;;;;;;;3.70;3.40;;;33.30;16.60;;;;;;10420893;28;20620;-71
2023/06/19 17:37:16;;;;;;;3.93;3.63;;;33.30;16.60;;;;;;10425463;28;20229;-71
2023/06/19 17:42:19;;;;;;;9.37;4.00;;;33.20;16.60;;;;;;10426738;28;20225;-70
2023/06/19 17:47:22;;;;;;;3.80;3.60;;;33.20;16.70;;;;;;10433692;28;20609;-70
2023/06/19 17:52:27;;;;;;;5.07;4.67;;;33.20;16.90;;;;;;10420745;28;20232;-70
2023/06/19 17:57:31;;;;;;;6.40;5.90;;;33.10;16.90;;;;;;10426522;28;20264;-70
2023/06/19 18:02:34;;;;;;;6.07;5.67;;;33.00;16.90;;;;;;10432483;28;20225;-71
2023/06/19 18:07:39;;;;;;;6.80;6.30;;;32.90;17.20;;;;;;10429057;28;20237;-70
2023/06/19 18:12:42;;;;;;;6.17;5.77;;;32.70;17.30;;;;;;10425663;28;20232;-71
2023/06/19 18:17:45;;;;;;;6.57;6.17;;;32.60;17.30;;;;;;10427603;28;20235;-68
2023/06/19 18:22:50;;;;;;;6.50;6.03;;;32.50;17.50;;;;;;10427405;28;20233;-69
2023/06/19 18:27:53;;;;;;;8.03;7.53;;;32.50;17.70;;;;;;10421824;28;20241;-69
2023/06/19 18:32:56;;;;;;;8.03;7.20;;;32.30;17.60;;;;;;10432884;28;20232;-69
2023/06/19 18:38:01;;;;;;;8.10;7.50;;;32.30;17.70;;;;;;10432294;28;20743;-68
2023/06/19 18:43:04;;;;;;;7.60;6.93;;;32.20;18.00;;;;;;10427614;28;20230;-67
2023/06/19 18:48:07;;;;;;;7.47;6.87;;;32.10;18.10;;;;;;10438113;28;20225;-70
2023/06/19 18:53:12;;;;;;;7.00;6.40;;;32.00;18.00;;;;;;10437711;28;20217;-70
2023/06/19 18:58:18;;;;;;;7.30;6.70;;;31.90;18.10;;;;;;10437795;28;20233;-70
2023/06/19 19:03:21;;;;;;;6.40;5.90;;;31.90;18.20;;;;;;10430443;28;20239;-70
2023/06/19 19:08:26;;;;;;;7.10;6.53;;;31.70;18.40;;;;;;10439021;28;20929;-70
2023/06/19 19:13:30;;;;;;;7.17;6.67;;;31.60;19.20;;;;;;10433854;28;20764;-70
2023/06/19 19:18:33;;;;;;;7.40;6.80;;;31.50;18.50;;;;;;10428655;28;20225;-70
2023/06/19 19:23:38;;;;;;;7.33;6.73;;;31.40;18.70;;;;;;10447120;28;20229;-70
2023/06/19 19:28:41;;;;;;;7.43;6.83;;;31.30;19.00;;;;;;10441455;28;20225;-70
2023/06/19 19:33:44;;;;;;;7.40;6.70;;;31.20;19.00;;;;;;10430416;28;20228;-70
2023/06/19 19:38:49;;;;;;;7.20;6.70;;;31.10;19.00;;;;;;10432472;28;20597;-70
2023/06/19 19:43:52;;;;;;;7.00;6.50;;;30.90;19.50;;;;;;10427381;28;20352;-70
2023/06/19 19:48:55;;;;;;;7.43;6.83;;;30.80;19.50;;;;;;10426342;28;20244;-70
2023/06/19 19:54:00;;;;;;;6.80;6.30;;;30.70;19.60;;;;;;10431685;28;20243;-70
2023/06/19 19:59:03;;;;;;;6.73;6.23;;;30.60;20.50;;;;;;10430984;28;20233;-69
2023/06/19 20:04:06;;;;;;;7.23;6.70;;;30.60;19.90;;;;;;10427701;28;20234;-70
2023/06/19 20:09:11;;;;;;;7.47;6.97;;;30.50;20.10;;;;;;10430933;28;20664;-70
2023/06/19 20:14:15;;;;;;;6.70;6.20;;;30.40;20.40;;;;;;10428136;28;20252;-69
2023/06/19 20:19:18;;;;;;;7.37;6.80;;;30.30;20.30;;;;;;10430313;28;20257;-69
2023/06/19 20:24:23;;;;;;;7.80;7.00;;;30.10;20.50;;;;;;10428723;28;20290;-70
2023/06/19 20:29:26;;;;;;;7.07;6.47;;;30.00;20.90;;;;;;10425621;28;20615;-70
2023/06/19 20:34:30;;;;;;;6.80;6.30;;;29.90;21.00;;;;;;10433123;28;20254;-70
2023/06/19 20:39:35;;;;;;;7.23;6.73;;;29.80;21.00;;;;;;10426319;28;20367;-70
2023/06/19 20:44:39;;;;;;;7.47;6.87;;;29.70;20.90;;;;;;10428764;28;20233;-70
2023/06/19 20:49:42;;;;;;;7.23;6.70;;;29.60;20.90;;;;;;10437498;28;20666;-70
2023/06/19 20:54:47;;;;;;;7.47;6.67;;;29.50;20.90;;;;;;10424486;28;20229;-70
2023/06/19 20:59:50;;;;;;;7.13;6.63;;;29.30;21.50;;;;;;10432838;28;20244;-70
2023/06/19 21:04:54;;;;;;;7.77;7.17;;;29.30;21.40;;;;;;10431492;28;21199;-70
2023/06/19 21:09:58;;;;;;;7.20;6.60;;;29.10;21.50;;;;;;10425075;28;20229;-70
2023/06/19 21:15:02;;;;;;;7.40;6.60;;;28.90;21.70;;;;;;10430859;28;20228;-70
2023/06/19 21:20:09;;;;;;;7.70;7.20;;;28.80;21.80;;;;;;10425778;28;20246;-70
2023/06/19 21:25:13;;;;;;;6.90;6.40;;;28.70;21.90;;;;;;10429475;28;20237;-70
2023/06/19 21:30:17;;;;;;;7.47;6.93;;;28.60;22.30;;;;;;10436193;28;20620;-70
2023/06/19 21:35:20;;;;;;;6.83;6.40;;;28.60;22.10;;;;;;10436674;28;20232;-70
2023/06/19 21:40:25;;;;;;;7.80;7.13;;;28.60;22.30;;;;;;10429087;28;20220;-70
2023/06/19 21:45:28;;;;;;;7.37;6.80;;;28.60;22.20;;;;;;10431957;28;20574;-70
2023/06/19 21:50:31;;;;;;;7.07;6.47;;;28.50;22.20;;;;;;10435394;28;20648;-70
2023/06/19 21:55:36;;;;;;;6.63;6.13;;;28.50;22.40;;;;;;10423438;28;20226;-70
2023/06/19 22:00:39;;;;;;;7.43;6.90;;;28.50;22.70;;;;;;10428107;28;20254;-70
2023/06/19 22:05:43;;;;;;;7.73;7.13;;;28.60;22.50;;;;;;10428636;28;20244;-70
2023/06/19 22:10:47;;;;;;;7.43;6.83;;;28.50;22.40;;;;;;10431855;28;20243;-70
2023/06/19 22:15:51;;;;;;;8.13;7.50;;;28.40;23.00;;;;;;10425373;28;20324;-70
2023/06/19 22:20:54;;;;;;;7.73;7.13;;;28.40;22.80;;;;;;10439144;28;20776;-70
2023/06/19 22:25:59;;;;;;;8.07;7.27;;;28.00;22.80;;;;;;10439441;28;20601;-70
2023/06/19 22:31:02;;;;;;;8.37;7.67;;;27.90;23.50;;;;;;10433102;28;20224;-70
2023/06/19 22:36:10;;;;;;;8.17;7.50;;;27.70;23.40;;;;;;10435732;28;20229;-70
2023/06/19 22:41:14;;;;;;;7.73;7.13;;;27.60;23.50;;;;;;10433377;28;20918;-70
2023/06/19 22:46:17;;;;;;;8.83;8.20;;;27.60;23.90;;;;;;10428914;28;20229;-70
2023/06/19 22:51:21;;;;;;;8.30;7.70;;;27.60;23.80;;;;;;10439817;28;20240;-70
2023/06/19 22:56:26;;;;;;;8.37;7.63;;;27.60;23.80;;;;;;10442728;28;20240;-69
2023/06/19 23:01:30;;;;;;;9.00;8.30;;;27.70;24.20;;;;;;10434245;28;20221;-70
2023/06/19 23:06:41;;;;;;;7.83;7.33;;;27.60;23.90;;;;;;10431987;28;20240;-70
2023/06/19 23:11:48;;;;;;;8.30;7.70;;;27.60;23.90;;;;;;10445784;28;20648;-70
2023/06/19 23:16:51;;;;;;;7.63;7.07;;;27.50;24.10;;;;;;10436605;28;20233;-71
2023/06/19 23:21:54;;;;;;;7.40;6.77;;;27.50;24.00;;;;;;10432396;28;20322;-71
2023/06/19 23:26:59;;;;;;;8.63;7.83;;;27.40;24.00;;;;;;10432671;28;20233;-71
2023/06/19 23:32:02;;;;;;;8.33;7.63;;;27.30;24.60;;;;;;10437048;28;20240;-70
2023/06/19 23:37:05;;;;;;;8.70;8.00;;;27.20;24.40;;;;;;10427442;28;20735;-70
2023/06/19 23:42:11;;;;;;;8.60;8.00;;;27.10;24.60;;;;;;10448518;28;20233;-70
2023/06/19 23:47:15;;;;;;;8.63;7.93;;;27.00;24.90;;;;;;10438794;28;20607;-69
2023/06/19 23:52:18;;;;;;;8.83;8.13;;;26.90;24.90;;;;;;10435865;28;20222;-69
2023/06/19 23:57:37;;;;;;;8.30;7.70;;;26.90;25.20;;;;;;10431953;28;20337;-70
